createdAt,value
2023-02-22T00:00:15.090Z,83.14
2023-02-22T00:01:15.401Z,83.25
2023-02-22T00:02:15.088Z,83.04
2023-02-22T00:03:15.131Z,82.93
2023-02-22T00:04:15.044Z,83.14
2023-02-22T00:05:15.044Z,83.04
2023-02-22T00:06:15.025Z,83.04
2023-02-22T00:07:15.002Z,83.04
2023-02-22T00:08:14.998Z,82.93
2023-02-22T00:09:14.984Z,82.83
2023-02-22T00:10:14.981Z,82.83
2023-02-22T00:11:15.399Z,83.04
2023-02-22T00:12:14.945Z,83.35
2023-02-22T00:13:14.958Z,83.45
2023-02-22T00:14:14.943Z,83.35
2023-02-22T00:15:14.923Z,83.28
2023-02-22T00:16:14.944Z,83.39
2023-02-22T00:17:14.924Z,83.28
2023-02-22T00:18:14.894Z,83.59
2023-02-22T00:19:14.923Z,83.90
2023-02-22T00:20:15.258Z,84.00
2023-02-22T00:21:15.180Z,84.11
2023-02-22T00:22:14.848Z,84.11
2023-02-22T00:23:14.851Z,84.11
2023-02-22T00:24:14.836Z,84.42
2023-02-22T00:25:14.863Z,84.72
2023-02-22T00:26:14.809Z,84.72
2023-02-22T00:27:14.808Z,84.42
2023-02-22T00:28:14.783Z,84.31
2023-02-22T00:29:14.770Z,84.42
2023-02-22T00:30:14.873Z,84.31
2023-02-22T00:31:15.342Z,84.42
2023-02-22T00:32:14.869Z,84.42
2023-02-22T00:33:14.729Z,84.42
2023-02-22T00:34:14.712Z,84.31
2023-02-22T00:35:14.719Z,84.21
2023-02-22T00:36:14.719Z,84.21
2023-02-22T00:37:14.687Z,84.72
2023-02-22T00:38:14.671Z,84.83
2023-02-22T00:39:14.692Z,85.14
2023-02-22T00:40:14.648Z,85.34
2023-02-22T00:41:15.160Z,85.49
2023-02-22T00:42:14.628Z,85.44
2023-02-22T00:43:14.645Z,85.14
2023-02-22T00:44:14.655Z,84.83
2023-02-22T00:45:14.625Z,84.72
2023-02-22T00:46:14.923Z,84.62
2023-02-22T00:47:14.773Z,84.93
2023-02-22T00:48:14.589Z,85.14
2023-02-22T00:49:14.570Z,85.24
2023-02-22T00:50:14.560Z,85.14
2023-02-22T00:51:14.961Z,85.03
2023-02-22T00:52:14.740Z,84.93
2023-02-22T00:53:14.538Z,84.66
2023-02-22T00:54:14.518Z,84.56
2023-02-22T00:55:14.511Z,84.66
2023-02-22T00:56:14.485Z,84.56
2023-02-22T00:57:14.490Z,84.56
2023-02-22T00:58:14.479Z,84.45
2023-02-22T00:59:14.469Z,84.35
2023-02-22T01:00:14.451Z,84.45
2023-02-22T01:01:14.935Z,84.56
2023-02-22T01:02:14.433Z,84.59
2023-02-22T01:03:14.422Z,84.80
2023-02-22T01:04:14.422Z,85.01
2023-02-22T01:05:14.391Z,85.11
2023-02-22T01:06:14.392Z,85.01
2023-02-22T01:07:14.383Z,85.01
2023-02-22T01:08:14.381Z,85.22
2023-02-22T01:09:14.352Z,85.42
2023-02-22T01:10:14.341Z,85.63
2023-02-22T01:11:14.536Z,85.94
2023-02-22T01:12:14.323Z,86.15
2023-02-22T01:13:14.319Z,86.24
2023-02-22T01:14:14.293Z,86.45
2023-02-22T01:15:14.283Z,86.45
2023-02-22T01:16:14.299Z,86.45
2023-02-22T01:17:14.273Z,86.55
2023-02-22T01:18:14.272Z,86.55
2023-02-22T01:19:14.252Z,86.45
2023-02-22T01:20:14.229Z,86.45
2023-02-22T01:21:14.492Z,86.24
2023-02-22T01:22:14.367Z,86.35
2023-02-22T01:23:14.309Z,86.24
2023-02-22T01:24:14.290Z,86.24
2023-02-22T01:25:14.190Z,86.55
2023-02-22T01:26:14.173Z,86.55
2023-02-22T01:27:14.195Z,86.55
2023-02-22T01:28:14.160Z,86.66
2023-02-22T01:29:14.158Z,86.66
2023-02-22T01:30:14.204Z,86.76
2023-02-22T01:31:14.184Z,86.76
2023-02-22T01:32:14.127Z,86.87
2023-02-22T01:33:14.103Z,86.87
2023-02-22T01:34:14.073Z,86.87
2023-02-22T01:35:14.090Z,86.55
2023-02-22T01:36:14.214Z,86.45
2023-02-22T01:37:14.143Z,86.24
2023-02-22T01:38:14.052Z,86.45
2023-02-22T01:39:14.037Z,86.55
2023-02-22T01:40:14.011Z,86.45
2023-02-22T01:41:14.090Z,86.35
2023-02-22T01:42:13.992Z,86.35
2023-02-22T01:43:14.003Z,86.24
2023-02-22T01:44:13.999Z,86.55
2023-02-22T01:45:13.963Z,86.45
2023-02-22T01:46:14.012Z,86.66
2023-02-22T01:47:13.951Z,86.76
2023-02-22T01:48:13.943Z,86.55
2023-02-22T01:49:13.921Z,86.55
2023-02-22T01:50:13.921Z,86.87
2023-02-22T01:51:13.974Z,86.97
2023-02-22T01:52:13.881Z,86.97
2023-02-22T01:53:13.916Z,87.11
2023-02-22T01:54:13.888Z,87.11
2023-02-22T01:55:13.858Z,87.32
2023-02-22T01:56:13.847Z,87.21
2023-02-22T01:57:13.849Z,87.21
2023-02-22T01:58:13.811Z,87.32
2023-02-22T01:59:13.821Z,87.42
2023-02-22T02:00:13.820Z,87.21
2023-02-22T02:01:13.800Z,87.11
2023-02-22T02:02:13.782Z,87.11
2023-02-22T02:03:13.784Z,87.32
2023-02-22T02:04:13.799Z,87.11
2023-02-22T02:05:13.816Z,87.21
2023-02-22T02:06:13.745Z,87.21
2023-02-22T02:07:13.721Z,87.21
2023-02-22T02:08:13.730Z,87.32
2023-02-22T02:09:13.711Z,87.42
2023-02-22T02:10:13.721Z,87.52
2023-02-22T02:11:13.699Z,87.63
2023-02-22T02:12:13.694Z,87.73
2023-02-22T02:13:13.659Z,87.87
2023-02-22T02:14:13.652Z,88.08
2023-02-22T02:15:13.641Z,88.08
2023-02-22T02:16:13.632Z,88.08
2023-02-22T02:17:13.636Z,88.18
2023-02-22T02:18:13.617Z,88.18
2023-02-22T02:19:13.594Z,88.08
2023-02-22T02:20:13.594Z,87.98
2023-02-22T02:21:13.667Z,87.87
2023-02-22T02:22:13.575Z,88.08
2023-02-22T02:23:13.553Z,87.98
2023-02-22T02:24:13.565Z,87.98
2023-02-22T02:25:13.524Z,87.98
2023-02-22T02:26:13.525Z,87.87
2023-02-22T02:27:13.516Z,87.77
2023-02-22T02:28:13.509Z,87.66
2023-02-22T02:29:13.496Z,87.52
2023-02-22T02:30:13.546Z,87.42
2023-02-22T02:31:13.476Z,87.42
2023-02-22T02:32:13.611Z,87.42
2023-02-22T02:33:13.447Z,87.32
2023-02-22T02:34:13.468Z,87.32
2023-02-22T02:35:13.437Z,87.32
2023-02-22T02:36:13.426Z,87.32
2023-02-22T02:37:13.411Z,87.32
2023-02-22T02:38:13.409Z,87.21
2023-02-22T02:39:13.391Z,87.21
2023-02-22T02:40:13.401Z,87.32
2023-02-22T02:41:13.371Z,87.21
2023-02-22T02:42:13.376Z,87.11
2023-02-22T02:43:13.357Z,87.11
2023-02-22T02:44:13.338Z,87.01
2023-02-22T02:45:13.335Z,86.90
2023-02-22T02:46:13.321Z,87.01
2023-02-22T02:47:13.297Z,87.26
2023-02-22T02:48:13.310Z,87.46
2023-02-22T02:49:13.279Z,87.46
2023-02-22T02:50:13.272Z,87.66
2023-02-22T02:51:13.277Z,87.66
2023-02-22T02:52:13.250Z,87.77
2023-02-22T02:53:13.240Z,87.87
2023-02-22T02:54:13.249Z,87.87
2023-02-22T02:55:13.230Z,87.98
2023-02-22T02:56:13.237Z,87.87
2023-02-22T02:57:13.189Z,87.87
2023-02-22T02:58:13.281Z,87.66
2023-02-22T02:59:13.201Z,87.46
2023-02-22T03:00:13.173Z,87.46
2023-02-22T03:01:13.228Z,87.46
2023-02-22T03:02:13.187Z,87.46
2023-02-22T03:03:13.142Z,87.35
2023-02-22T03:04:13.125Z,87.35
2023-02-22T03:05:13.136Z,87.35
2023-02-22T03:06:13.101Z,87.35
2023-02-22T03:07:13.123Z,87.35
2023-02-22T03:08:13.081Z,87.46
2023-02-22T03:09:13.078Z,87.46
2023-02-22T03:10:13.101Z,87.46
2023-02-22T03:11:13.042Z,87.46
2023-02-22T03:12:13.044Z,87.35
2023-02-22T03:13:13.022Z,87.35
2023-02-22T03:14:13.038Z,87.46
2023-02-22T03:15:13.006Z,87.35
2023-02-22T03:16:13.019Z,87.26
2023-02-22T03:17:12.984Z,87.15
2023-02-22T03:18:12.976Z,87.05
2023-02-22T03:19:13.008Z,87.15
2023-02-22T03:20:12.954Z,87.15
2023-02-22T03:21:12.934Z,87.15
2023-02-22T03:22:12.935Z,87.15
2023-02-22T03:23:12.914Z,87.29
2023-02-22T03:24:12.917Z,87.15
2023-02-22T03:25:12.926Z,87.15
2023-02-22T03:26:12.905Z,87.29
2023-02-22T03:27:12.905Z,87.29
2023-02-22T03:28:12.876Z,87.19
2023-02-22T03:29:12.863Z,87.08
2023-02-22T03:30:12.878Z,87.08
2023-02-22T03:31:12.893Z,87.08
2023-02-22T03:32:12.847Z,87.08
2023-02-22T03:33:12.817Z,87.08
2023-02-22T03:34:12.815Z,87.08
2023-02-22T03:35:12.810Z,87.19
2023-02-22T03:36:12.808Z,87.29
2023-02-22T03:37:12.787Z,87.19
2023-02-22T03:38:12.767Z,87.29
2023-02-22T03:39:12.768Z,87.29
2023-02-22T03:40:12.749Z,87.08
2023-02-22T03:41:12.738Z,86.98
2023-02-22T03:42:12.721Z,87.08
2023-02-22T03:43:12.721Z,87.19
2023-02-22T03:44:12.730Z,87.19
2023-02-22T03:45:12.699Z,86.98
2023-02-22T03:46:12.728Z,86.98
2023-02-22T03:47:12.674Z,86.98
2023-02-22T03:48:12.676Z,86.88
2023-02-22T03:49:12.649Z,86.88
2023-02-22T03:50:12.672Z,86.78
2023-02-22T03:51:13.331Z,86.88
2023-02-22T03:52:12.630Z,86.88
2023-02-22T03:53:12.610Z,86.88
2023-02-22T03:54:12.601Z,87.19
2023-02-22T03:55:12.618Z,87.29
2023-02-22T03:56:12.586Z,87.19
2023-02-22T03:57:12.585Z,87.29
2023-02-22T03:58:12.561Z,87.40
2023-02-22T03:59:12.542Z,87.40
2023-02-22T04:00:12.549Z,87.50
2023-02-22T04:01:12.522Z,87.50
2023-02-22T04:02:12.529Z,87.60
2023-02-22T04:03:12.580Z,87.71
2023-02-22T04:04:12.491Z,87.81
2023-02-22T04:05:12.479Z,87.85
2023-02-22T04:06:12.475Z,87.95
2023-02-22T04:07:12.464Z,87.95
2023-02-22T04:08:12.467Z,87.85
2023-02-22T04:09:12.430Z,87.85
2023-02-22T04:10:12.430Z,87.85
2023-02-22T04:11:12.411Z,87.74
2023-02-22T04:12:13.349Z,87.95
2023-02-22T04:13:12.410Z,87.74
2023-02-22T04:14:12.381Z,87.65
2023-02-22T04:15:12.377Z,87.54
2023-02-22T04:16:12.398Z,87.29
2023-02-22T04:17:12.363Z,87.34
2023-02-22T04:18:12.344Z,87.19
2023-02-22T04:19:12.451Z,87.19
2023-02-22T04:20:12.331Z,87.44
2023-02-22T04:21:12.301Z,87.34
2023-02-22T04:22:12.309Z,87.23
2023-02-22T04:23:12.288Z,87.34
2023-02-22T04:24:12.294Z,87.34
2023-02-22T04:25:12.262Z,87.34
2023-02-22T04:26:12.253Z,87.44
2023-02-22T04:27:12.263Z,87.34
2023-02-22T04:28:12.241Z,87.23
2023-02-22T04:29:12.248Z,87.23
2023-02-22T04:30:12.249Z,87.23
2023-02-22T04:31:12.239Z,87.44
2023-02-22T04:32:12.287Z,87.44
2023-02-22T04:33:12.180Z,87.44
2023-02-22T04:34:12.172Z,87.44
2023-02-22T04:35:12.160Z,87.65
2023-02-22T04:36:12.153Z,87.74
2023-02-22T04:37:12.133Z,87.74
2023-02-22T04:38:12.136Z,87.74
2023-02-22T04:39:12.150Z,87.54
2023-02-22T04:40:12.115Z,87.54
2023-02-22T04:41:12.096Z,87.65
2023-02-22T04:42:12.084Z,87.65
2023-02-22T04:43:12.082Z,87.74
2023-02-22T04:44:12.102Z,87.54
2023-02-22T04:45:12.053Z,87.65
2023-02-22T04:46:12.063Z,87.65
2023-02-22T04:47:12.042Z,87.65
2023-02-22T04:48:12.026Z,87.65
2023-02-22T04:49:12.016Z,87.54
2023-02-22T04:50:12.057Z,87.65
2023-02-22T04:51:11.994Z,87.54
2023-02-22T04:52:11.984Z,87.65
2023-02-22T04:53:11.975Z,87.74
2023-02-22T04:54:11.969Z,87.74
2023-02-22T04:55:11.959Z,87.89
2023-02-22T04:56:11.959Z,87.74
2023-02-22T04:57:11.938Z,87.65
2023-02-22T04:58:11.925Z,87.65
2023-02-22T04:59:11.895Z,87.89
2023-02-22T05:00:11.897Z,87.89
2023-02-22T05:01:11.912Z,87.79
2023-02-22T05:02:11.874Z,87.68
2023-02-22T05:03:11.875Z,87.68
2023-02-22T05:04:11.868Z,87.68
2023-02-22T05:05:11.845Z,87.79
2023-02-22T05:06:11.834Z,87.89
2023-02-22T05:07:11.834Z,87.99
2023-02-22T05:08:11.815Z,87.79
2023-02-22T05:09:11.798Z,87.68
2023-02-22T05:10:11.800Z,87.79
2023-02-22T05:11:11.777Z,87.79
2023-02-22T05:12:11.788Z,87.89
2023-02-22T05:13:12.012Z,87.99
2023-02-22T05:14:11.747Z,87.99
2023-02-22T05:15:11.737Z,87.99
2023-02-22T05:16:11.774Z,87.89
2023-02-22T05:17:11.717Z,87.99
2023-02-22T05:18:11.708Z,87.89
2023-02-22T05:19:11.700Z,87.99
2023-02-22T05:20:11.689Z,87.79
2023-02-22T05:21:11.670Z,87.89
2023-02-22T05:22:11.671Z,87.79
2023-02-22T05:23:11.667Z,87.68
2023-02-22T05:24:11.647Z,87.68
2023-02-22T05:25:11.627Z,87.79
2023-02-22T05:26:11.849Z,87.89
2023-02-22T05:27:11.621Z,87.99
2023-02-22T05:28:11.602Z,87.89
2023-02-22T05:29:11.586Z,87.99
2023-02-22T05:30:11.614Z,88.10
2023-02-22T05:31:11.590Z,88.10
2023-02-22T05:32:11.592Z,88.20
2023-02-22T05:33:11.546Z,88.31
2023-02-22T05:34:11.540Z,88.31
2023-02-22T05:35:11.525Z,88.41
2023-02-22T05:36:11.528Z,88.41
2023-02-22T05:37:11.508Z,88.20
2023-02-22T05:38:11.498Z,88.10
2023-02-22T05:39:11.501Z,87.99
2023-02-22T05:40:11.470Z,87.89
2023-02-22T05:41:11.462Z,87.89
2023-02-22T05:42:11.457Z,87.89
2023-02-22T05:43:11.442Z,87.89
2023-02-22T05:44:11.462Z,87.68
2023-02-22T05:45:11.422Z,87.58
2023-02-22T05:46:11.461Z,87.58
2023-02-22T05:47:11.401Z,87.48
2023-02-22T05:48:11.409Z,87.48
2023-02-22T05:49:11.403Z,87.58
2023-02-22T05:50:11.382Z,87.79
2023-02-22T05:51:11.366Z,87.89
2023-02-22T05:52:11.349Z,87.99
2023-02-22T05:53:11.333Z,88.20
2023-02-22T05:54:11.346Z,88.20
2023-02-22T05:55:11.312Z,88.20
2023-02-22T05:56:11.321Z,88.10
2023-02-22T05:57:11.293Z,88.20
2023-02-22T05:58:12.234Z,88.20
2023-02-22T05:59:11.291Z,88.10
2023-02-22T06:00:11.274Z,88.20
2023-02-22T06:01:11.251Z,88.20
2023-02-22T06:02:11.296Z,88.10
2023-02-22T06:03:11.250Z,88.82
2023-02-22T06:04:11.239Z,89.54
2023-02-22T06:05:11.435Z,89.65
2023-02-22T06:06:11.206Z,89.34
2023-02-22T06:07:11.353Z,89.65
2023-02-22T06:08:11.179Z,89.34
2023-02-22T06:09:11.161Z,89.34
2023-02-22T06:10:11.163Z,88.82
2023-02-22T06:11:11.142Z,88.51
2023-02-22T06:12:11.129Z,88.41
2023-02-22T06:13:11.148Z,88.20
2023-02-22T06:14:11.121Z,88.10
2023-02-22T06:15:11.126Z,87.99
2023-02-22T06:16:11.179Z,87.99
2023-02-22T06:17:11.220Z,87.99
2023-02-22T06:18:11.110Z,87.89
2023-02-22T06:19:11.064Z,87.89
2023-02-22T06:20:11.054Z,87.99
2023-02-22T06:21:11.052Z,87.79
2023-02-22T06:22:11.023Z,87.89
2023-02-22T06:23:11.040Z,87.89
2023-02-22T06:24:11.002Z,87.89
2023-02-22T06:25:10.990Z,87.99
2023-02-22T06:26:11.016Z,87.89
2023-02-22T06:27:10.970Z,87.89
2023-02-22T06:28:11.155Z,87.99
2023-02-22T06:29:11.091Z,87.89
2023-02-22T06:30:13.185Z,87.79
2023-02-22T06:31:10.966Z,87.89
2023-02-22T06:32:10.949Z,87.89
2023-02-22T06:33:10.910Z,87.79
2023-02-22T06:34:10.892Z,87.89
2023-02-22T06:35:10.907Z,87.99
2023-02-22T06:36:10.890Z,88.31
2023-02-22T06:37:10.885Z,88.31
2023-02-22T06:38:10.850Z,88.20
2023-02-22T06:39:10.854Z,88.41
2023-02-22T06:40:10.855Z,88.61
2023-02-22T06:41:10.823Z,88.71
2023-02-22T06:42:10.828Z,88.31
2023-02-22T06:43:10.809Z,87.99
2023-02-22T06:44:10.791Z,87.89
2023-02-22T06:45:10.831Z,87.99
2023-02-22T06:46:10.769Z,88.16
2023-02-22T06:47:10.771Z,88.06
2023-02-22T06:48:10.751Z,87.95
2023-02-22T06:49:10.752Z,87.85
2023-02-22T06:50:10.731Z,87.74
2023-02-22T06:51:10.716Z,87.74
2023-02-22T06:52:10.718Z,87.74
2023-02-22T06:53:10.691Z,87.54
2023-02-22T06:54:10.695Z,87.44
2023-02-22T06:55:10.691Z,87.44
2023-02-22T06:56:10.665Z,87.65
2023-02-22T06:57:10.661Z,87.65
2023-02-22T06:58:10.638Z,87.54
2023-02-22T06:59:10.664Z,87.54
2023-02-22T07:00:10.621Z,87.34
2023-02-22T07:01:10.633Z,87.23
2023-02-22T07:02:10.609Z,87.23
2023-02-22T07:03:10.625Z,87.23
2023-02-22T07:04:10.584Z,87.23
2023-02-22T07:05:10.578Z,87.34
2023-02-22T07:06:10.576Z,87.34
2023-02-22T07:07:10.577Z,87.44
2023-02-22T07:08:10.555Z,87.34
2023-02-22T07:09:10.540Z,87.44
2023-02-22T07:10:10.516Z,87.34
2023-02-22T07:11:10.536Z,87.34
2023-02-22T07:12:10.517Z,87.40
2023-02-22T07:13:10.487Z,87.40
2023-02-22T07:14:10.468Z,87.40
2023-02-22T07:15:10.475Z,87.29
2023-02-22T07:16:10.484Z,87.50
2023-02-22T07:17:10.447Z,87.60
2023-02-22T07:18:10.432Z,87.50
2023-02-22T07:19:11.160Z,87.29
2023-02-22T07:20:10.419Z,86.98
2023-02-22T07:21:11.977Z,86.78
2023-02-22T07:22:10.422Z,86.78
2023-02-22T07:23:10.385Z,86.68
2023-02-22T07:24:10.380Z,86.74
2023-02-22T07:25:10.378Z,86.53
2023-02-22T07:26:10.357Z,86.43
2023-02-22T07:27:10.339Z,86.43
2023-02-22T07:28:10.340Z,86.43
2023-02-22T07:29:10.324Z,86.43
2023-02-22T07:30:10.335Z,86.32
2023-02-22T07:31:10.309Z,86.32
2023-02-22T07:32:10.361Z,86.43
2023-02-22T07:33:10.331Z,86.43
2023-02-22T07:34:10.269Z,86.22
2023-02-22T07:35:10.269Z,86.02
2023-02-22T07:36:10.276Z,86.02
2023-02-22T07:37:10.232Z,85.97
2023-02-22T07:38:10.223Z,85.87
2023-02-22T07:39:10.222Z,85.77
2023-02-22T07:40:10.200Z,85.87
2023-02-22T07:41:10.210Z,85.87
2023-02-22T07:42:10.174Z,85.67
2023-02-22T07:43:10.181Z,85.67
2023-02-22T07:44:10.152Z,85.67
2023-02-22T07:45:10.163Z,85.57
2023-02-22T07:46:10.134Z,85.42
2023-02-22T07:47:10.133Z,85.42
2023-02-22T07:48:10.124Z,85.42
2023-02-22T07:49:10.104Z,85.31
2023-02-22T07:50:10.115Z,85.22
2023-02-22T07:51:10.195Z,85.01
2023-02-22T07:52:10.074Z,84.91
2023-02-22T07:53:10.064Z,84.70
2023-02-22T07:54:10.066Z,84.39
2023-02-22T07:55:10.095Z,84.29
2023-02-22T07:56:10.024Z,83.98
2023-02-22T07:57:10.031Z,83.94
2023-02-22T07:58:10.020Z,83.84
2023-02-22T07:59:10.034Z,83.73
2023-02-22T08:00:09.992Z,83.94
2023-02-22T08:01:09.985Z,83.63
2023-02-22T08:02:10.010Z,83.53
2023-02-22T08:03:09.966Z,83.42
2023-02-22T08:04:09.945Z,83.42
2023-02-22T08:05:09.956Z,83.42
2023-02-22T08:06:11.520Z,83.42
2023-02-22T08:07:09.958Z,83.53
2023-02-22T08:08:10.006Z,83.53
2023-02-22T08:09:09.927Z,83.53
2023-02-22T08:10:09.966Z,83.28
2023-02-22T08:11:09.889Z,83.39
2023-02-22T08:12:10.877Z,83.59
2023-02-22T08:13:09.865Z,83.70
2023-02-22T08:14:09.991Z,83.59
2023-02-22T08:15:09.853Z,83.49
2023-02-22T08:16:10.901Z,83.49
2023-02-22T08:17:09.868Z,83.39
2023-02-22T08:18:10.528Z,83.49
2023-02-22T08:19:09.829Z,83.28
2023-02-22T08:20:10.488Z,83.25
2023-02-22T08:21:09.828Z,83.35
2023-02-22T08:22:09.789Z,83.04
2023-02-22T08:23:09.765Z,82.73
2023-02-22T08:24:09.744Z,82.73
2023-02-22T08:25:09.737Z,82.93
2023-02-22T08:26:09.746Z,82.73
2023-02-22T08:27:09.710Z,82.73
2023-02-22T08:28:09.712Z,82.83
2023-02-22T08:29:09.689Z,82.83
2023-02-22T08:30:09.740Z,82.93
2023-02-22T08:31:09.668Z,83.04
2023-02-22T08:32:09.823Z,82.69
2023-02-22T08:33:09.706Z,82.59
2023-02-22T08:34:09.629Z,82.48
2023-02-22T08:35:09.636Z,82.39
2023-02-22T08:36:09.619Z,82.39
2023-02-22T08:37:09.603Z,82.48
2023-02-22T08:38:09.587Z,82.59
2023-02-22T08:39:09.580Z,82.55
2023-02-22T08:40:09.590Z,82.76
2023-02-22T08:41:09.559Z,82.76
2023-02-22T08:42:09.550Z,82.45
2023-02-22T08:43:09.552Z,82.65
2023-02-22T08:44:09.521Z,82.24
2023-02-22T08:45:09.519Z,81.93
2023-02-22T08:46:09.552Z,81.93
2023-02-22T08:47:09.488Z,81.59
2023-02-22T08:48:09.479Z,81.48
2023-02-22T08:49:09.487Z,81.48
2023-02-22T08:50:09.487Z,81.79
2023-02-22T08:51:09.479Z,82.00
2023-02-22T08:52:09.451Z,81.69
2023-02-22T08:53:09.452Z,81.59
2023-02-22T08:54:09.436Z,81.90
2023-02-22T08:55:09.411Z,82.10
2023-02-22T08:56:09.396Z,82.00
2023-02-22T08:57:09.393Z,82.17
2023-02-22T08:58:09.592Z,81.76
2023-02-22T08:59:09.367Z,81.76
2023-02-22T09:00:09.360Z,81.65
2023-02-22T09:01:09.386Z,81.65
2023-02-22T09:02:09.347Z,81.65
2023-02-22T09:03:09.340Z,81.51
2023-02-22T09:04:09.311Z,81.51
2023-02-22T09:05:09.319Z,81.41
2023-02-22T09:06:09.329Z,81.51
2023-02-22T09:07:09.285Z,81.51
2023-02-22T09:08:09.319Z,81.00
2023-02-22T09:09:09.258Z,80.58
2023-02-22T09:10:09.246Z,80.86
2023-02-22T09:11:09.227Z,80.96
2023-02-22T09:12:09.226Z,80.96
2023-02-22T09:13:09.229Z,80.86
2023-02-22T09:14:09.207Z,80.65
2023-02-22T09:15:09.210Z,80.76
2023-02-22T09:16:09.244Z,80.65
2023-02-22T09:17:09.168Z,80.62
2023-02-22T09:18:09.169Z,80.31
2023-02-22T09:19:09.166Z,80.21
2023-02-22T09:20:09.159Z,80.21
2023-02-22T09:21:09.208Z,80.21
2023-02-22T09:22:09.110Z,80.21
2023-02-22T09:23:10.158Z,80.58
2023-02-22T09:24:09.098Z,80.47
2023-02-22T09:25:16.748Z,79.75
2023-02-22T09:26:10.069Z,79.55
2023-02-22T09:27:09.067Z,79.31
2023-02-22T09:28:09.049Z,79.41
2023-02-22T09:29:09.041Z,79.31
2023-02-22T09:30:09.061Z,79.62
2023-02-22T09:31:09.043Z,79.31
2023-02-22T09:32:09.170Z,79.17
2023-02-22T09:33:09.262Z,79.17
2023-02-22T09:34:08.980Z,79.07
2023-02-22T09:35:08.989Z,79.07
2023-02-22T09:36:09.020Z,79.48
2023-02-22T09:37:08.957Z,79.27
2023-02-22T09:38:08.941Z,78.86
2023-02-22T09:39:08.940Z,78.83
2023-02-22T09:40:08.919Z,78.83
2023-02-22T09:41:08.930Z,78.83
2023-02-22T09:42:08.898Z,79.13
2023-02-22T09:43:08.893Z,78.49
2023-02-22T09:44:08.879Z,78.08
2023-02-22T09:45:08.883Z,77.76
2023-02-22T09:46:08.945Z,77.76
2023-02-22T09:47:08.852Z,77.94
2023-02-22T09:48:21.375Z,77.22
2023-02-22T09:49:09.855Z,77.22
2023-02-22T09:50:08.811Z,77.01
2023-02-22T09:51:08.809Z,76.20
2023-02-22T09:52:08.821Z,76.20
2023-02-22T09:53:08.781Z,75.48
2023-02-22T09:54:08.771Z,75.45
2023-02-22T09:55:08.776Z,75.65
2023-02-22T09:56:08.752Z,75.45
2023-02-22T09:57:08.741Z,75.34
2023-02-22T09:58:08.764Z,75.24
2023-02-22T09:59:08.728Z,75.14
2023-02-22T10:00:08.723Z,75.21
2023-02-22T10:01:09.249Z,75.41
2023-02-22T10:02:08.823Z,75.51
2023-02-22T10:03:08.695Z,75.51
2023-02-22T10:04:08.665Z,75.41
2023-02-22T10:05:08.742Z,74.87
2023-02-22T10:06:08.649Z,75.07
2023-02-22T10:07:08.999Z,74.87
2023-02-22T10:08:08.651Z,74.87
2023-02-22T10:09:08.616Z,75.07
2023-02-22T10:10:08.607Z,74.11
2023-02-22T10:11:08.687Z,73.71
2023-02-22T10:12:08.608Z,73.81
2023-02-22T10:13:08.574Z,73.77
2023-02-22T10:14:08.828Z,73.77
2023-02-22T10:15:08.557Z,73.27
2023-02-22T10:16:08.725Z,73.27
2023-02-22T10:17:08.536Z,73.06
2023-02-22T10:18:08.517Z,72.92
2023-02-22T10:19:09.372Z,72.62
2023-02-22T10:20:08.590Z,72.41
2023-02-22T10:21:08.494Z,72.31
2023-02-22T10:22:08.501Z,72.31
2023-02-22T10:23:08.469Z,72.28
2023-02-22T10:24:08.470Z,71.87
2023-02-22T10:25:09.706Z,71.77
2023-02-22T10:26:08.429Z,71.87
2023-02-22T10:27:08.457Z,71.87
2023-02-22T10:28:08.430Z,71.94
2023-02-22T10:29:08.409Z,72.04
2023-02-22T10:30:23.507Z,72.04
2023-02-22T10:31:09.442Z,71.94
2023-02-22T10:32:08.437Z,71.94
2023-02-22T10:33:08.364Z,71.84
2023-02-22T10:34:08.354Z,71.63
2023-02-22T10:35:08.350Z,70.68
2023-02-22T10:36:08.365Z,70.58
2023-02-22T10:37:08.328Z,70.58
2023-02-22T10:38:08.305Z,70.58
2023-02-22T10:39:08.298Z,70.68
2023-02-22T10:40:08.285Z,70.89
2023-02-22T10:41:08.297Z,70.89
2023-02-22T10:42:08.277Z,70.99
2023-02-22T10:43:08.272Z,70.75
2023-02-22T10:44:08.254Z,70.75
2023-02-22T10:45:08.237Z,70.24
2023-02-22T10:46:08.323Z,70.34
2023-02-22T10:47:08.222Z,69.63
2023-02-22T10:48:08.213Z,70.01
2023-02-22T10:49:08.192Z,70.01
2023-02-22T10:50:08.189Z,69.70
2023-02-22T10:51:08.179Z,69.36
2023-02-22T10:52:08.169Z,69.26
2023-02-22T10:53:08.150Z,68.96
2023-02-22T10:54:08.140Z,68.75
2023-02-22T10:55:15.320Z,68.41
2023-02-22T10:56:09.220Z,68.21
2023-02-22T10:57:08.140Z,68.01
2023-02-22T10:58:08.104Z,67.19
2023-02-22T10:59:08.085Z,67.10
2023-02-22T11:00:08.080Z,67.06
2023-02-22T11:01:08.083Z,66.96
2023-02-22T11:02:08.059Z,66.96
2023-02-22T11:03:08.060Z,66.76
2023-02-22T11:04:08.045Z,67.06
2023-02-22T11:05:08.072Z,67.03
2023-02-22T11:06:08.013Z,67.24
2023-02-22T11:07:08.001Z,67.03
2023-02-22T11:08:08.001Z,66.80
2023-02-22T11:09:07.970Z,66.08
2023-02-22T11:10:07.987Z,66.39
2023-02-22T11:11:07.959Z,66.19
2023-02-22T11:12:07.982Z,66.19
2023-02-22T11:13:07.936Z,65.68
2023-02-22T11:14:07.943Z,65.78
2023-02-22T11:15:07.941Z,65.68
2023-02-22T11:16:07.914Z,65.75
2023-02-22T11:17:07.917Z,65.48
2023-02-22T11:18:08.902Z,65.78
2023-02-22T11:19:07.936Z,65.88
2023-02-22T11:20:07.873Z,66.29
2023-02-22T11:21:07.866Z,66.26
2023-02-22T11:22:07.852Z,65.95
2023-02-22T11:23:07.823Z,65.95
2023-02-22T11:24:07.841Z,66.16
2023-02-22T11:25:07.802Z,65.65
2023-02-22T11:26:07.824Z,65.55
2023-02-22T11:27:07.815Z,65.75
2023-02-22T11:28:07.815Z,65.34
2023-02-22T11:29:07.764Z,65.55
2023-02-22T11:30:07.827Z,65.45
2023-02-22T11:31:07.885Z,65.45
2023-02-22T11:32:07.745Z,65.55
2023-02-22T11:33:07.731Z,65.72
2023-02-22T11:34:07.716Z,65.21
2023-02-22T11:35:09.466Z,64.91
2023-02-22T11:36:07.695Z,64.81
2023-02-22T11:37:07.674Z,64.70
2023-02-22T11:38:07.683Z,64.81
2023-02-22T11:39:07.727Z,64.78
2023-02-22T11:40:07.654Z,64.47
2023-02-22T11:41:07.623Z,64.78
2023-02-22T11:42:07.637Z,64.78
2023-02-22T11:43:07.615Z,64.14
2023-02-22T11:44:07.610Z,64.24
2023-02-22T11:45:07.590Z,64.04
2023-02-22T11:46:07.632Z,64.14
2023-02-22T11:47:07.576Z,63.90
2023-02-22T11:48:07.555Z,63.81
2023-02-22T11:49:07.548Z,63.70
2023-02-22T11:50:07.533Z,63.60
2023-02-22T11:51:07.527Z,63.60
2023-02-22T11:52:07.545Z,63.70
2023-02-22T11:53:07.508Z,63.50
2023-02-22T11:54:07.495Z,63.81
2023-02-22T11:55:07.478Z,63.50
2023-02-22T11:56:07.512Z,63.30
2023-02-22T11:57:07.475Z,63.30
2023-02-22T11:58:07.474Z,63.20
2023-02-22T11:59:07.438Z,63.40
2023-02-22T12:00:07.496Z,63.40
2023-02-22T12:01:07.442Z,63.09
2023-02-22T12:02:07.411Z,62.76
2023-02-22T12:03:07.517Z,62.86
2023-02-22T12:04:07.500Z,62.96
2023-02-22T12:05:08.385Z,62.66
2023-02-22T12:06:07.427Z,62.66
2023-02-22T12:07:07.376Z,62.76
2023-02-22T12:08:18.878Z,62.23
2023-02-22T12:09:08.367Z,62.15
2023-02-22T12:10:07.327Z,62.05
2023-02-22T12:11:07.309Z,62.35
2023-02-22T12:12:07.298Z,62.26
2023-02-22T12:13:07.293Z,62.56
2023-02-22T12:14:07.269Z,62.02
2023-02-22T12:15:07.288Z,61.92
2023-02-22T12:16:07.318Z,61.59
2023-02-22T12:17:07.256Z,60.85
2023-02-22T12:18:07.238Z,60.22
2023-02-22T12:19:07.285Z,59.66
2023-02-22T12:20:07.226Z,58.85
2023-02-22T12:21:07.222Z,59.15
2023-02-22T12:22:07.193Z,59.18
2023-02-22T12:23:07.444Z,58.98
2023-02-22T12:24:07.162Z,58.87
2023-02-22T12:25:09.815Z,58.80
2023-02-22T12:26:07.201Z,59.21
2023-02-22T12:27:07.360Z,59.03
2023-02-22T12:28:19.026Z,59.14
2023-02-22T12:29:08.128Z,59.44
2023-02-22T12:30:08.451Z,59.87
2023-02-22T12:31:07.375Z,60.17
2023-02-22T12:32:08.409Z,60.27
2023-02-22T12:33:07.115Z,60.07
2023-02-22T12:34:07.861Z,59.36
2023-02-22T12:35:07.070Z,59.27
2023-02-22T12:36:07.710Z,59.03
2023-02-22T12:37:07.058Z,58.60
2023-02-22T12:38:07.125Z,57.94
2023-02-22T12:39:07.868Z,56.04
2023-02-22T12:40:07.001Z,54.35
2023-02-22T12:41:07.033Z,53.50
2023-02-22T12:42:06.980Z,52.67
2023-02-22T12:43:07.072Z,52.14
2023-02-22T12:44:06.962Z,51.92
2023-02-22T12:45:08.335Z,51.06
2023-02-22T12:46:07.248Z,50.11
2023-02-22T12:47:06.933Z,49.19
2023-02-22T12:48:07.029Z,48.57
2023-02-22T12:49:06.935Z,48.57
2023-02-22T12:50:07.135Z,49.21
2023-02-22T12:51:06.914Z,49.51
2023-02-22T12:52:20.553Z,49.99